sensor_id;sensor_type;location;lat;lon;timestamp;P1;durP1;ratioP1;P2;durP2;ratioP2
42296;SDS011;28985;47.456;19.016;2022-11-11T00:01:06;129.55;;;124.13;;
42296;SDS011;28985;47.456;19.016;2022-11-11T00:03:40;121.45;;;116.40;;
42296;SDS011;28985;47.456;19.016;2022-11-11T00:06:11;123.82;;;118.68;;
42296;SDS011;28985;47.456;19.016;2022-11-11T00:08:39;123.35;;;118.15;;
42296;SDS011;28985;47.456;19.016;2022-11-11T00:11:07;121.13;;;115.93;;
42296;SDS011;28985;47.456;19.016;2022-11-11T00:13:36;117.75;;;112.28;;
42296;SDS011;28985;47.456;19.016;2022-11-11T00:16:04;121.90;;;116.55;;
42296;SDS011;28985;47.456;19.016;2022-11-11T00:18:32;116.85;;;111.60;;
42296;SDS011;28985;47.456;19.016;2022-11-11T00:21:18;111.28;;;106.57;;
42296;SDS011;28985;47.456;19.016;2022-11-11T00:27:05;112.28;;;107.25;;
42296;SDS011;28985;47.456;19.016;2022-11-11T00:29:32;107.55;;;103.00;;
42296;SDS011;28985;47.456;19.016;2022-11-11T00:31:59;107.60;;;102.82;;
42296;SDS011;28985;47.456;19.016;2022-11-11T00:34:44;116.28;;;111.18;;
42296;SDS011;28985;47.456;19.016;2022-11-11T00:37:31;99.30;;;94.47;;
42296;SDS011;28985;47.456;19.016;2022-11-11T00:39:58;107.65;;;102.82;;
42296;SDS011;28985;47.456;19.016;2022-11-11T00:42:25;101.32;;;97.13;;
42296;SDS011;28985;47.456;19.016;2022-11-11T00:44:52;105.78;;;101.05;;
42296;SDS011;28985;47.456;19.016;2022-11-11T00:47:19;110.65;;;106.00;;
42296;SDS011;28985;47.456;19.016;2022-11-11T00:50:06;108.45;;;103.75;;
42296;SDS011;28985;47.456;19.016;2022-11-11T00:52:55;102.05;;;97.45;;
42296;SDS011;28985;47.456;19.016;2022-11-11T00:55:21;117.22;;;112.25;;
42296;SDS011;28985;47.456;19.016;2022-11-11T00:57:48;126.78;;;121.20;;
42296;SDS011;28985;47.456;19.016;2022-11-11T01:00:14;120.57;;;115.65;;
42296;SDS011;28985;47.456;19.016;2022-11-11T01:02:41;110.43;;;105.45;;
42296;SDS011;28985;47.456;19.016;2022-11-11T01:05:08;107.13;;;102.35;;
42296;SDS011;28985;47.456;19.016;2022-11-11T01:07:34;92.03;;;87.82;;
42296;SDS011;28985;47.456;19.016;2022-11-11T01:10:01;91.28;;;86.80;;
42296;SDS011;28985;47.456;19.016;2022-11-11T01:12:28;87.43;;;83.35;;
42296;SDS011;28985;47.456;19.016;2022-11-11T01:14:54;86.38;;;82.40;;
42296;SDS011;28985;47.456;19.016;2022-11-11T01:17:21;86.00;;;81.78;;
42296;SDS011;28985;47.456;19.016;2022-11-11T01:19:48;88.35;;;84.20;;
42296;SDS011;28985;47.456;19.016;2022-11-11T01:22:14;102.15;;;97.70;;
42296;SDS011;28985;47.456;19.016;2022-11-11T01:24:41;122.88;;;117.25;;
42296;SDS011;28985;47.456;19.016;2022-11-11T01:27:07;125.45;;;120.25;;
42296;SDS011;28985;47.456;19.016;2022-11-11T01:29:34;110.82;;;105.88;;
42296;SDS011;28985;47.456;19.016;2022-11-11T01:32:00;129.52;;;123.97;;
42296;SDS011;28985;47.456;19.016;2022-11-11T01:34:27;97.60;;;93.13;;
42296;SDS011;28985;47.456;19.016;2022-11-11T01:36:54;98.50;;;94.22;;
42296;SDS011;28985;47.456;19.016;2022-11-11T01:39:20;93.28;;;89.03;;
42296;SDS011;28985;47.456;19.016;2022-11-11T01:41:47;88.93;;;84.97;;
42296;SDS011;28985;47.456;19.016;2022-11-11T01:52:28;76.68;;;73.28;;
42296;SDS011;28985;47.456;19.016;2022-11-11T01:55:03;78.18;;;74.07;;
42296;SDS011;28985;47.456;19.016;2022-11-11T02:00:26;81.18;;;77.60;;
42296;SDS011;28985;47.456;19.016;2022-11-11T02:02:53;86.25;;;82.10;;
42296;SDS011;28985;47.456;19.016;2022-11-11T02:05:24;99.40;;;94.80;;
42296;SDS011;28985;47.456;19.016;2022-11-11T02:08:14;100.18;;;95.97;;
42296;SDS011;28985;47.456;19.016;2022-11-11T02:11:09;104.50;;;99.53;;
42296;SDS011;28985;47.456;19.016;2022-11-11T02:13:39;97.00;;;92.72;;
42296;SDS011;28985;47.456;19.016;2022-11-11T02:16:26;94.15;;;90.00;;
42296;SDS011;28985;47.456;19.016;2022-11-11T02:18:53;86.25;;;82.13;;
42296;SDS011;28985;47.456;19.016;2022-11-11T02:21:34;80.28;;;76.72;;
42296;SDS011;28985;47.456;19.016;2022-11-11T02:24:08;71.15;;;67.93;;
42296;SDS011;28985;47.456;19.016;2022-11-11T02:26:39;68.20;;;65.07;;
42296;SDS011;28985;47.456;19.016;2022-11-11T02:29:10;64.93;;;61.65;;
42296;SDS011;28985;47.456;19.016;2022-11-11T02:31:39;57.97;;;54.95;;
42296;SDS011;28985;47.456;19.016;2022-11-11T02:34:06;54.10;;;51.55;;
42296;SDS011;28985;47.456;19.016;2022-11-11T02:36:32;54.08;;;51.58;;
42296;SDS011;28985;47.456;19.016;2022-11-11T02:38:59;51.13;;;48.70;;
42296;SDS011;28985;47.456;19.016;2022-11-11T02:41:26;55.90;;;52.90;;
42296;SDS011;28985;47.456;19.016;2022-11-11T02:44:12;56.83;;;54.05;;
42296;SDS011;28985;47.456;19.016;2022-11-11T02:46:38;62.67;;;59.50;;
42296;SDS011;28985;47.456;19.016;2022-11-11T02:49:05;66.10;;;63.10;;
42296;SDS011;28985;47.456;19.016;2022-11-11T02:51:31;64.40;;;61.30;;
42296;SDS011;28985;47.456;19.016;2022-11-11T02:53:58;58.90;;;56.05;;
42296;SDS011;28985;47.456;19.016;2022-11-11T02:56:28;56.70;;;53.78;;
42296;SDS011;28985;47.456;19.016;2022-11-11T03:01:40;52.45;;;49.90;;
42296;SDS011;28985;47.456;19.016;2022-11-11T03:04:07;56.90;;;53.72;;
42296;SDS011;28985;47.456;19.016;2022-11-11T03:06:33;50.22;;;48.00;;
42296;SDS011;28985;47.456;19.016;2022-11-11T03:09:00;47.67;;;45.33;;
42296;SDS011;28985;47.456;19.016;2022-11-11T03:11:27;46.45;;;44.25;;
42296;SDS011;28985;47.456;19.016;2022-11-11T03:13:54;49.08;;;46.10;;
42296;SDS011;28985;47.456;19.016;2022-11-11T03:16:25;47.33;;;45.05;;
42296;SDS011;28985;47.456;19.016;2022-11-11T03:19:12;46.65;;;44.50;;
42296;SDS011;28985;47.456;19.016;2022-11-11T03:21:39;47.25;;;44.90;;
42296;SDS011;28985;47.456;19.016;2022-11-11T03:24:26;47.40;;;45.22;;
42296;SDS011;28985;47.456;19.016;2022-11-11T03:27:15;48.47;;;45.78;;
42296;SDS011;28985;47.456;19.016;2022-11-11T03:29:42;50.88;;;48.55;;
42296;SDS011;28985;47.456;19.016;2022-11-11T03:32:08;50.97;;;48.30;;
42296;SDS011;28985;47.456;19.016;2022-11-11T03:34:35;52.20;;;49.70;;
42296;SDS011;28985;47.456;19.016;2022-11-11T03:37:02;51.13;;;48.53;;
42296;SDS011;28985;47.456;19.016;2022-11-11T03:39:49;49.80;;;47.00;;
42296;SDS011;28985;47.456;19.016;2022-11-11T03:42:15;50.40;;;47.97;;
42296;SDS011;28985;47.456;19.016;2022-11-11T03:44:42;51.47;;;48.85;;
42296;SDS011;28985;47.456;19.016;2022-11-11T03:47:08;51.33;;;49.13;;
42296;SDS011;28985;47.456;19.016;2022-11-11T03:49:35;50.45;;;48.00;;
42296;SDS011;28985;47.456;19.016;2022-11-11T03:52:02;51.40;;;49.00;;
42296;SDS011;28985;47.456;19.016;2022-11-11T03:54:28;48.47;;;46.38;;
42296;SDS011;28985;47.456;19.016;2022-11-11T03:56:55;50.50;;;47.92;;
42296;SDS011;28985;47.456;19.016;2022-11-11T03:59:41;49.20;;;47.10;;
42296;SDS011;28985;47.456;19.016;2022-11-11T04:02:10;50.88;;;48.42;;
42296;SDS011;28985;47.456;19.016;2022-11-11T04:04:57;51.97;;;49.58;;
42296;SDS011;28985;47.456;19.016;2022-11-11T04:07:42;51.42;;;49.13;;
42296;SDS011;28985;47.456;19.016;2022-11-11T04:10:27;56.95;;;54.13;;
42296;SDS011;28985;47.456;19.016;2022-11-11T04:12:56;52.95;;;50.45;;
42296;SDS011;28985;47.456;19.016;2022-11-11T04:15:43;53.33;;;50.63;;
42296;SDS011;28985;47.456;19.016;2022-11-11T04:18:28;52.88;;;50.60;;
42296;SDS011;28985;47.456;19.016;2022-11-11T04:21:13;54.47;;;52.08;;
42296;SDS011;28985;47.456;19.016;2022-11-11T04:23:58;55.67;;;52.65;;
42296;SDS011;28985;47.456;19.016;2022-11-11T04:26:24;57.88;;;54.80;;
42296;SDS011;28985;47.456;19.016;2022-11-11T04:28:51;56.05;;;53.50;;
42296;SDS011;28985;47.456;19.016;2022-11-11T04:31:35;58.00;;;55.15;;
42296;SDS011;28985;47.456;19.016;2022-11-11T04:34:02;55.83;;;53.05;;
42296;SDS011;28985;47.456;19.016;2022-11-11T04:36:29;55.08;;;52.58;;
42296;SDS011;28985;47.456;19.016;2022-11-11T04:38:55;56.20;;;53.42;;
42296;SDS011;28985;47.456;19.016;2022-11-11T04:44:26;66.80;;;63.05;;
42296;SDS011;28985;47.456;19.016;2022-11-11T04:47:11;97.28;;;92.60;;
42296;SDS011;28985;47.456;19.016;2022-11-11T04:49:38;146.07;;;139.27;;
42296;SDS011;28985;47.456;19.016;2022-11-11T04:52:04;211.88;;;202.43;;
42296;SDS011;28985;47.456;19.016;2022-11-11T04:54:49;235.15;;;224.93;;
42296;SDS011;28985;47.456;19.016;2022-11-11T04:57:37;251.10;;;240.63;;
42296;SDS011;28985;47.456;19.016;2022-11-11T05:00:05;249.57;;;238.48;;
42296;SDS011;28985;47.456;19.016;2022-11-11T05:02:32;263.27;;;252.00;;
42296;SDS011;28985;47.456;19.016;2022-11-11T05:07:45;271.48;;;259.95;;
42296;SDS011;28985;47.456;19.016;2022-11-11T05:10:30;266.77;;;255.50;;
42296;SDS011;28985;47.456;19.016;2022-11-11T05:12:56;272.92;;;261.60;;
42296;SDS011;28985;47.456;19.016;2022-11-11T05:15:49;260.70;;;249.55;;
42296;SDS011;28985;47.456;19.016;2022-11-11T05:18:34;276.45;;;264.77;;
42296;SDS011;28985;47.456;19.016;2022-11-11T05:21:21;273.85;;;262.10;;
42296;SDS011;28985;47.456;19.016;2022-11-11T05:23:52;261.73;;;250.13;;
42296;SDS011;28985;47.456;19.016;2022-11-11T05:26:37;275.73;;;263.67;;
42296;SDS011;28985;47.456;19.016;2022-11-11T05:29:04;245.07;;;234.55;;
42296;SDS011;28985;47.456;19.016;2022-11-11T05:31:30;231.77;;;221.93;;
42296;SDS011;28985;47.456;19.016;2022-11-11T05:33:57;231.05;;;221.27;;
42296;SDS011;28985;47.456;19.016;2022-11-11T05:36:24;245.93;;;235.23;;
42296;SDS011;28985;47.456;19.016;2022-11-11T05:38:50;249.23;;;238.30;;
42296;SDS011;28985;47.456;19.016;2022-11-11T05:41:17;246.27;;;236.10;;
42296;SDS011;28985;47.456;19.016;2022-11-11T05:43:43;243.35;;;232.98;;
42296;SDS011;28985;47.456;19.016;2022-11-11T05:46:10;250.27;;;239.63;;
42296;SDS011;28985;47.456;19.016;2022-11-11T05:48:36;247.23;;;236.77;;
42296;SDS011;28985;47.456;19.016;2022-11-11T05:51:23;245.85;;;235.45;;
42296;SDS011;28985;47.456;19.016;2022-11-11T05:53:54;245.68;;;235.45;;
42296;SDS011;28985;47.456;19.016;2022-11-11T05:56:21;233.10;;;223.10;;
42296;SDS011;28985;47.456;19.016;2022-11-11T05:58:50;243.70;;;233.27;;
42296;SDS011;28985;47.456;19.016;2022-11-11T06:01:17;235.73;;;225.80;;
42296;SDS011;28985;47.456;19.016;2022-11-11T06:03:44;234.02;;;224.48;;
42296;SDS011;28985;47.456;19.016;2022-11-11T06:06:11;232.63;;;223.02;;
42296;SDS011;28985;47.456;19.016;2022-11-11T06:08:38;220.63;;;211.55;;
42296;SDS011;28985;47.456;19.016;2022-11-11T06:11:05;210.07;;;201.32;;
42296;SDS011;28985;47.456;19.016;2022-11-11T06:13:32;200.35;;;191.57;;
42296;SDS011;28985;47.456;19.016;2022-11-11T06:15:58;189.98;;;182.00;;
42296;SDS011;28985;47.456;19.016;2022-11-11T06:18:25;186.10;;;178.13;;
42296;SDS011;28985;47.456;19.016;2022-11-11T06:20:57;196.20;;;187.73;;
42296;SDS011;28985;47.456;19.016;2022-11-11T06:23:24;190.77;;;182.25;;
42296;SDS011;28985;47.456;19.016;2022-11-11T06:25:53;187.90;;;179.73;;
42296;SDS011;28985;47.456;19.016;2022-11-11T06:28:46;188.82;;;180.68;;
42296;SDS011;28985;47.456;19.016;2022-11-11T06:31:13;189.02;;;180.82;;
42296;SDS011;28985;47.456;19.016;2022-11-11T06:33:48;167.85;;;160.38;;
42296;SDS011;28985;47.456;19.016;2022-11-11T06:36:16;161.68;;;154.55;;
42296;SDS011;28985;47.456;19.016;2022-11-11T06:38:43;156.77;;;149.80;;
42296;SDS011;28985;47.456;19.016;2022-11-11T06:41:11;169.50;;;162.32;;
42296;SDS011;28985;47.456;19.016;2022-11-11T06:43:38;178.13;;;170.40;;
42296;SDS011;28985;47.456;19.016;2022-11-11T06:46:05;191.65;;;183.73;;
42296;SDS011;28985;47.456;19.016;2022-11-11T06:48:32;202.52;;;193.77;;
42296;SDS011;28985;47.456;19.016;2022-11-11T06:51:02;215.77;;;206.80;;
42296;SDS011;28985;47.456;19.016;2022-11-11T06:53:30;220.95;;;212.00;;
42296;SDS011;28985;47.456;19.016;2022-11-11T06:55:57;226.18;;;216.93;;
42296;SDS011;28985;47.456;19.016;2022-11-11T06:58:23;230.07;;;220.50;;
42296;SDS011;28985;47.456;19.016;2022-11-11T07:00:52;231.45;;;221.73;;
42296;SDS011;28985;47.456;19.016;2022-11-11T07:03:19;222.15;;;212.60;;
42296;SDS011;28985;47.456;19.016;2022-11-11T07:05:51;207.18;;;198.27;;
42296;SDS011;28985;47.456;19.016;2022-11-11T07:08:24;201.38;;;192.88;;
42296;SDS011;28985;47.456;19.016;2022-11-11T07:10:51;177.25;;;169.55;;
42296;SDS011;28985;47.456;19.016;2022-11-11T07:13:18;164.32;;;156.80;;
42296;SDS011;28985;47.456;19.016;2022-11-11T07:15:45;142.30;;;135.80;;
42296;SDS011;28985;47.456;19.016;2022-11-11T07:18:11;137.30;;;130.68;;
42296;SDS011;28985;47.456;19.016;2022-11-11T07:20:38;118.65;;;113.03;;
42296;SDS011;28985;47.456;19.016;2022-11-11T07:23:05;107.38;;;102.18;;
42296;SDS011;28985;47.456;19.016;2022-11-11T07:25:31;96.57;;;91.60;;
42296;SDS011;28985;47.456;19.016;2022-11-11T07:27:58;90.53;;;85.80;;
42296;SDS011;28985;47.456;19.016;2022-11-11T07:30:25;87.40;;;82.95;;
42296;SDS011;28985;47.456;19.016;2022-11-11T07:32:52;85.43;;;80.97;;
42296;SDS011;28985;47.456;19.016;2022-11-11T07:35:20;89.45;;;84.95;;
42296;SDS011;28985;47.456;19.016;2022-11-11T07:37:47;93.35;;;88.57;;
42296;SDS011;28985;47.456;19.016;2022-11-11T07:40:14;105.43;;;99.80;;
42296;SDS011;28985;47.456;19.016;2022-11-11T07:42:42;113.88;;;108.53;;
42296;SDS011;28985;47.456;19.016;2022-11-11T07:45:09;133.13;;;126.90;;
42296;SDS011;28985;47.456;19.016;2022-11-11T07:47:37;142.63;;;136.02;;
42296;SDS011;28985;47.456;19.016;2022-11-11T07:50:04;150.35;;;143.27;;
42296;SDS011;28985;47.456;19.016;2022-11-11T07:52:33;152.93;;;146.00;;
42296;SDS011;28985;47.456;19.016;2022-11-11T07:55:03;131.90;;;125.63;;
42296;SDS011;28985;47.456;19.016;2022-11-11T07:57:31;109.07;;;103.60;;
42296;SDS011;28985;47.456;19.016;2022-11-11T07:59:57;98.97;;;94.13;;
42296;SDS011;28985;47.456;19.016;2022-11-11T08:02:24;100.95;;;96.03;;
42296;SDS011;28985;47.456;19.016;2022-11-11T08:04:50;84.88;;;80.65;;
42296;SDS011;28985;47.456;19.016;2022-11-11T08:07:21;80.57;;;76.32;;
42296;SDS011;28985;47.456;19.016;2022-11-11T08:09:49;86.05;;;81.30;;
42296;SDS011;28985;47.456;19.016;2022-11-11T08:12:17;88.53;;;83.88;;
42296;SDS011;28985;47.456;19.016;2022-11-11T08:17:36;79.40;;;74.82;;
42296;SDS011;28985;47.456;19.016;2022-11-11T08:20:05;110.50;;;105.20;;
42296;SDS011;28985;47.456;19.016;2022-11-11T08:22:35;150.27;;;143.48;;
42296;SDS011;28985;47.456;19.016;2022-11-11T08:25:03;208.80;;;199.50;;
42296;SDS011;28985;47.456;19.016;2022-11-11T08:27:31;233.75;;;223.57;;
42296;SDS011;28985;47.456;19.016;2022-11-11T08:29:58;259.23;;;247.60;;
42296;SDS011;28985;47.456;19.016;2022-11-11T08:32:26;139.85;;;133.43;;
42296;SDS011;28985;47.456;19.016;2022-11-11T08:34:52;151.48;;;144.48;;
42296;SDS011;28985;47.456;19.016;2022-11-11T08:37:19;170.18;;;162.95;;
42296;SDS011;28985;47.456;19.016;2022-11-11T08:39:46;166.88;;;159.82;;
42296;SDS011;28985;47.456;19.016;2022-11-11T08:42:12;85.97;;;82.13;;
42296;SDS011;28985;47.456;19.016;2022-11-11T08:44:39;49.22;;;46.85;;
42296;SDS011;28985;47.456;19.016;2022-11-11T08:47:05;40.22;;;37.78;;
42296;SDS011;28985;47.456;19.016;2022-11-11T08:49:32;69.25;;;66.05;;
42296;SDS011;28985;47.456;19.016;2022-11-11T08:51:58;51.38;;;48.67;;
42296;SDS011;28985;47.456;19.016;2022-11-11T08:54:25;50.67;;;48.03;;
42296;SDS011;28985;47.456;19.016;2022-11-11T08:56:51;72.93;;;69.32;;
42296;SDS011;28985;47.456;19.016;2022-11-11T08:59:18;86.45;;;82.63;;
42296;SDS011;28985;47.456;19.016;2022-11-11T09:01:44;79.50;;;75.78;;
42296;SDS011;28985;47.456;19.016;2022-11-11T09:04:11;31.10;;;29.20;;
42296;SDS011;28985;47.456;19.016;2022-11-11T09:06:57;25.85;;;24.45;;
42296;SDS011;28985;47.456;19.016;2022-11-11T09:09:24;27.55;;;26.15;;
42296;SDS011;28985;47.456;19.016;2022-11-11T09:11:51;28.60;;;26.90;;
42296;SDS011;28985;47.456;19.016;2022-11-11T09:14:17;30.08;;;28.50;;
42296;SDS011;28985;47.456;19.016;2022-11-11T09:16:44;31.13;;;29.10;;
42296;SDS011;28985;47.456;19.016;2022-11-11T09:19:10;30.88;;;29.10;;
42296;SDS011;28985;47.456;19.016;2022-11-11T09:21:37;27.48;;;26.00;;
42296;SDS011;28985;47.456;19.016;2022-11-11T09:24:03;30.40;;;28.05;;
42296;SDS011;28985;47.456;19.016;2022-11-11T09:26:30;26.83;;;25.30;;
42296;SDS011;28985;47.456;19.016;2022-11-11T09:28:57;23.10;;;21.70;;
42296;SDS011;28985;47.456;19.016;2022-11-11T09:31:23;28.80;;;26.83;;
42296;SDS011;28985;47.456;19.016;2022-11-11T09:34:10;31.90;;;29.60;;
42296;SDS011;28985;47.456;19.016;2022-11-11T09:36:36;30.80;;;28.02;;
42296;SDS011;28985;47.456;19.016;2022-11-11T09:39:03;29.40;;;27.25;;
42296;SDS011;28985;47.456;19.016;2022-11-11T09:41:36;29.02;;;27.02;;
42296;SDS011;28985;47.456;19.016;2022-11-11T09:45:04;28.58;;;26.52;;
42296;SDS011;28985;47.456;19.016;2022-11-11T09:50:08;30.30;;;27.73;;
42296;SDS011;28985;47.456;19.016;2022-11-11T09:52:42;28.90;;;26.80;;
42296;SDS011;28985;47.456;19.016;2022-11-11T09:55:26;32.67;;;30.67;;
42296;SDS011;28985;47.456;19.016;2022-11-11T09:58:20;30.60;;;28.80;;
42296;SDS011;28985;47.456;19.016;2022-11-11T10:01:52;25.23;;;24.00;;
42296;SDS011;28985;47.456;19.016;2022-11-11T10:03:57;23.65;;;22.10;;
42296;SDS011;28985;47.456;19.016;2022-11-11T10:06:42;20.80;;;19.40;;
42296;SDS011;28985;47.456;19.016;2022-11-11T10:14:41;22.17;;;20.70;;
42296;SDS011;28985;47.456;19.016;2022-11-11T10:20:14;18.60;;;17.48;;
42296;SDS011;28985;47.456;19.016;2022-11-11T10:23:06;20.00;;;18.42;;
42296;SDS011;28985;47.456;19.016;2022-11-11T10:25:36;20.85;;;19.70;;
42296;SDS011;28985;47.456;19.016;2022-11-11T10:28:18;19.52;;;18.27;;
42296;SDS011;28985;47.456;19.016;2022-11-11T10:30:47;20.27;;;18.95;;
42296;SDS011;28985;47.456;19.016;2022-11-11T10:33:18;21.08;;;20.00;;
42296;SDS011;28985;47.456;19.016;2022-11-11T10:35:49;20.80;;;19.60;;
42296;SDS011;28985;47.456;19.016;2022-11-11T10:41:04;21.27;;;19.92;;
42296;SDS011;28985;47.456;19.016;2022-11-11T10:43:39;22.23;;;21.13;;
42296;SDS011;28985;47.456;19.016;2022-11-11T10:51:22;20.55;;;19.45;;
42296;SDS011;28985;47.456;19.016;2022-11-11T10:54:03;21.75;;;20.55;;
42296;SDS011;28985;47.456;19.016;2022-11-11T10:59:31;21.52;;;20.25;;
42296;SDS011;28985;47.456;19.016;2022-11-11T11:07:47;21.55;;;20.10;;
42296;SDS011;28985;47.456;19.016;2022-11-11T11:10:18;19.00;;;17.92;;
42296;SDS011;28985;47.456;19.016;2022-11-11T11:13:01;21.42;;;20.10;;
42296;SDS011;28985;47.456;19.016;2022-11-11T11:15:32;21.92;;;20.63;;
42296;SDS011;28985;47.456;19.016;2022-11-11T11:18:12;24.60;;;22.90;;
42296;SDS011;28985;47.456;19.016;2022-11-11T11:21:02;25.23;;;23.63;;
42296;SDS011;28985;47.456;19.016;2022-11-11T11:26:03;24.08;;;22.60;;
42296;SDS011;28985;47.456;19.016;2022-11-11T11:28:31;24.08;;;22.48;;
42296;SDS011;28985;47.456;19.016;2022-11-11T11:31:01;22.83;;;21.08;;
42296;SDS011;28985;47.456;19.016;2022-11-11T11:36:20;19.52;;;18.38;;
42296;SDS011;28985;47.456;19.016;2022-11-11T11:38:47;17.00;;;15.90;;
42296;SDS011;28985;47.456;19.016;2022-11-11T11:41:16;17.27;;;16.27;;
42296;SDS011;28985;47.456;19.016;2022-11-11T11:43:44;15.77;;;14.98;;
42296;SDS011;28985;47.456;19.016;2022-11-11T11:46:18;16.77;;;15.95;;
42296;SDS011;28985;47.456;19.016;2022-11-11T11:48:56;16.55;;;15.55;;
42296;SDS011;28985;47.456;19.016;2022-11-11T11:57:07;15.25;;;14.45;;
42296;SDS011;28985;47.456;19.016;2022-11-11T11:59:47;17.35;;;16.05;;
42296;SDS011;28985;47.456;19.016;2022-11-11T12:08:25;23.00;;;21.50;;
42296;SDS011;28985;47.456;19.016;2022-11-11T12:11:36;21.88;;;20.27;;
42296;SDS011;28985;47.456;19.016;2022-11-11T12:16:53;23.73;;;22.02;;
42296;SDS011;28985;47.456;19.016;2022-11-11T12:27:54;22.60;;;21.17;;
42296;SDS011;28985;47.456;19.016;2022-11-11T12:30:27;22.85;;;21.20;;
42296;SDS011;28985;47.456;19.016;2022-11-11T12:36:10;20.13;;;18.77;;
42296;SDS011;28985;47.456;19.016;2022-11-11T12:38:57;19.10;;;17.73;;
42296;SDS011;28985;47.456;19.016;2022-11-11T12:41:33;19.60;;;18.33;;
42296;SDS011;28985;47.456;19.016;2022-11-11T12:44:13;18.63;;;17.35;;
42296;SDS011;28985;47.456;19.016;2022-11-11T12:46:48;15.98;;;15.00;;
42296;SDS011;28985;47.456;19.016;2022-11-11T13:00:43;19.75;;;19.02;;
42296;SDS011;28985;47.456;19.016;2022-11-11T13:06:13;19.80;;;18.90;;
42296;SDS011;28985;47.456;19.016;2022-11-11T13:14:24;20.17;;;19.38;;
42296;SDS011;28985;47.456;19.016;2022-11-11T13:17:05;21.75;;;20.75;;
42296;SDS011;28985;47.456;19.016;2022-11-11T13:22:27;18.55;;;17.75;;
42296;SDS011;28985;47.456;19.016;2022-11-11T13:24:55;18.10;;;17.40;;
42296;SDS011;28985;47.456;19.016;2022-11-11T13:32:48;15.50;;;14.80;;
42296;SDS011;28985;47.456;19.016;2022-11-11T13:35:30;15.55;;;14.85;;
42296;SDS011;28985;47.456;19.016;2022-11-11T13:38:01;15.50;;;14.70;;
42296;SDS011;28985;47.456;19.016;2022-11-11T13:40:36;17.13;;;16.20;;
42296;SDS011;28985;47.456;19.016;2022-11-11T13:43:19;16.35;;;15.52;;
42296;SDS011;28985;47.456;19.016;2022-11-11T13:45:51;18.77;;;17.75;;
42296;SDS011;28985;47.456;19.016;2022-11-11T13:51:10;17.90;;;17.05;;
42296;SDS011;28985;47.456;19.016;2022-11-11T13:53:45;17.02;;;16.33;;
42296;SDS011;28985;47.456;19.016;2022-11-11T13:58:53;16.42;;;15.73;;
42296;SDS011;28985;47.456;19.016;2022-11-11T14:01:21;16.58;;;15.63;;
42296;SDS011;28985;47.456;19.016;2022-11-11T14:13:53;15.43;;;14.63;;
42296;SDS011;28985;47.456;19.016;2022-11-11T14:24:24;22.08;;;20.70;;
42296;SDS011;28985;47.456;19.016;2022-11-11T14:29:29;24.80;;;23.75;;
42296;SDS011;28985;47.456;19.016;2022-11-11T14:40:32;32.78;;;30.85;;
42296;SDS011;28985;47.456;19.016;2022-11-11T14:42:59;34.38;;;32.75;;
42296;SDS011;28985;47.456;19.016;2022-11-11T14:46:01;35.63;;;33.92;;
42296;SDS011;28985;47.456;19.016;2022-11-11T14:48:54;35.22;;;33.78;;
42296;SDS011;28985;47.456;19.016;2022-11-11T14:54:17;37.05;;;35.42;;
42296;SDS011;28985;47.456;19.016;2022-11-11T14:59:49;40.78;;;39.00;;
42296;SDS011;28985;47.456;19.016;2022-11-11T15:02:21;40.40;;;38.80;;
42296;SDS011;28985;47.456;19.016;2022-11-11T15:04:51;39.50;;;37.77;;
42296;SDS011;28985;47.456;19.016;2022-11-11T15:07:21;38.85;;;37.30;;
42296;SDS011;28985;47.456;19.016;2022-11-11T15:15:40;40.80;;;38.97;;
42296;SDS011;28985;47.456;19.016;2022-11-11T15:21:07;42.55;;;40.70;;
42296;SDS011;28985;47.456;19.016;2022-11-11T15:26:16;46.38;;;43.95;;
42296;SDS011;28985;47.456;19.016;2022-11-11T15:31:41;51.03;;;47.92;;
42296;SDS011;28985;47.456;19.016;2022-11-11T15:37:08;39.67;;;37.47;;
42296;SDS011;28985;47.456;19.016;2022-11-11T15:42:10;38.00;;;35.67;;
42296;SDS011;28985;47.456;19.016;2022-11-11T15:44:58;48.33;;;45.90;;
42296;SDS011;28985;47.456;19.016;2022-11-11T15:47:29;39.85;;;37.53;;
42296;SDS011;28985;47.456;19.016;2022-11-11T15:50:01;37.55;;;35.63;;
42296;SDS011;28985;47.456;19.016;2022-11-11T15:52:30;35.90;;;33.90;;
42296;SDS011;28985;47.456;19.016;2022-11-11T15:54:58;36.83;;;35.10;;
42296;SDS011;28985;47.456;19.016;2022-11-11T15:57:31;42.08;;;39.88;;
42296;SDS011;28985;47.456;19.016;2022-11-11T15:59:59;42.53;;;40.22;;
42296;SDS011;28985;47.456;19.016;2022-11-11T16:02:32;42.55;;;40.05;;
42296;SDS011;28985;47.456;19.016;2022-11-11T16:05:06;42.88;;;40.67;;
42296;SDS011;28985;47.456;19.016;2022-11-11T16:07:42;43.90;;;41.30;;
42296;SDS011;28985;47.456;19.016;2022-11-11T16:10:14;48.63;;;45.85;;
42296;SDS011;28985;47.456;19.016;2022-11-11T16:12:44;53.47;;;50.60;;
42296;SDS011;28985;47.456;19.016;2022-11-11T16:15:23;59.55;;;56.55;;
42296;SDS011;28985;47.456;19.016;2022-11-11T16:17:59;69.30;;;66.20;;
42296;SDS011;28985;47.456;19.016;2022-11-11T16:20:36;73.57;;;70.13;;
42296;SDS011;28985;47.456;19.016;2022-11-11T16:23:25;72.88;;;69.70;;
42296;SDS011;28985;47.456;19.016;2022-11-11T16:25:53;78.68;;;74.78;;
42296;SDS011;28985;47.456;19.016;2022-11-11T16:28:21;73.28;;;69.32;;
42296;SDS011;28985;47.456;19.016;2022-11-11T16:30:49;68.25;;;64.72;;
42296;SDS011;28985;47.456;19.016;2022-11-11T16:33:19;62.97;;;59.05;;
42296;SDS011;28985;47.456;19.016;2022-11-11T16:36:08;51.10;;;48.10;;
42296;SDS011;28985;47.456;19.016;2022-11-11T16:38:36;49.63;;;46.80;;
42296;SDS011;28985;47.456;19.016;2022-11-11T16:41:23;47.67;;;45.20;;
42296;SDS011;28985;47.456;19.016;2022-11-11T16:43:51;47.35;;;44.63;;
42296;SDS011;28985;47.456;19.016;2022-11-11T16:49:12;48.33;;;45.42;;
42296;SDS011;28985;47.456;19.016;2022-11-11T16:51:47;53.77;;;50.37;;
42296;SDS011;28985;47.456;19.016;2022-11-11T16:54:19;48.15;;;45.58;;
42296;SDS011;28985;47.456;19.016;2022-11-11T16:56:49;57.67;;;54.03;;
42296;SDS011;28985;47.456;19.016;2022-11-11T16:59:20;53.45;;;50.17;;
42296;SDS011;28985;47.456;19.016;2022-11-11T17:01:48;57.95;;;54.92;;
42296;SDS011;28985;47.456;19.016;2022-11-11T17:04:16;54.72;;;51.67;;
42296;SDS011;28985;47.456;19.016;2022-11-11T17:06:47;55.75;;;52.65;;
42296;SDS011;28985;47.456;19.016;2022-11-11T17:09:26;64.07;;;60.60;;
42296;SDS011;28985;47.456;19.016;2022-11-11T17:11:53;72.82;;;68.97;;
42296;SDS011;28985;47.456;19.016;2022-11-11T17:14:20;80.35;;;76.72;;
42296;SDS011;28985;47.456;19.016;2022-11-11T17:16:46;81.72;;;77.78;;
42296;SDS011;28985;47.456;19.016;2022-11-11T17:19:13;87.13;;;82.82;;
42296;SDS011;28985;47.456;19.016;2022-11-11T17:21:40;91.32;;;87.32;;
42296;SDS011;28985;47.456;19.016;2022-11-11T17:24:06;90.82;;;86.38;;